sensor_id;sensor_type;location;lat;lon;timestamp;temperature;humidity
37984;DHT22;64625;50.882;4.376;2023-04-01T00:00:55;10.00;99.90
37984;DHT22;64625;50.882;4.376;2023-04-01T00:03:22;10.10;99.90
37984;DHT22;64625;50.882;4.376;2023-04-01T00:05:48;10.10;99.90
37984;DHT22;64625;50.882;4.376;2023-04-01T00:08:15;10.10;99.90
37984;DHT22;64625;50.882;4.376;2023-04-01T00:10:41;10.10;99.90
37984;DHT22;64625;50.882;4.376;2023-04-01T00:13:07;10.10;99.90
37984;DHT22;64625;50.882;4.376;2023-04-01T00:15:33;10.10;99.90
37984;DHT22;64625;50.882;4.376;2023-04-01T00:17:59;10.10;99.90
37984;DHT22;64625;50.882;4.376;2023-04-01T00:20:26;10.10;99.90
37984;DHT22;64625;50.882;4.376;2023-04-01T00:22:52;10.10;99.90
37984;DHT22;64625;50.882;4.376;2023-04-01T00:25:19;10.10;99.90
37984;DHT22;64625;50.882;4.376;2023-04-01T00:27:46;10.10;99.90
37984;DHT22;64625;50.882;4.376;2023-04-01T00:30:12;10.10;99.90
37984;DHT22;64625;50.882;4.376;2023-04-01T00:32:37;10.10;99.90
37984;DHT22;64625;50.882;4.376;2023-04-01T00:35:04;10.10;99.90
37984;DHT22;64625;50.882;4.376;2023-04-01T00:37:30;10.10;99.90
37984;DHT22;64625;50.882;4.376;2023-04-01T00:39:56;10.10;99.90
37984;DHT22;64625;50.882;4.376;2023-04-01T00:42:23;10.10;99.90
37984;DHT22;64625;50.882;4.376;2023-04-01T00:44:51;10.10;99.90
37984;DHT22;64625;50.882;4.376;2023-04-01T00:47:18;10.10;99.90
37984;DHT22;64625;50.882;4.376;2023-04-01T00:49:48;10.10;99.90
37984;DHT22;64625;50.882;4.376;2023-04-01T00:52:17;10.10;99.90
37984;DHT22;64625;50.882;4.376;2023-04-01T00:54:47;10.10;99.90
37984;DHT22;64625;50.882;4.376;2023-04-01T00:57:25;10.10;99.90
37984;DHT22;64625;50.882;4.376;2023-04-01T00:59:54;10.10;99.90
37984;DHT22;64625;50.882;4.376;2023-04-01T01:02:22;10.10;99.90
37984;DHT22;64625;50.882;4.376;2023-04-01T01:04:48;10.10;99.90
37984;DHT22;64625;50.882;4.376;2023-04-01T01:15:25;10.10;99.90
37984;DHT22;64625;50.882;4.376;2023-04-01T01:37:16;10.10;99.90
37984;DHT22;64625;50.882;4.376;2023-04-01T01:39:49;10.10;99.90
37984;DHT22;64625;50.882;4.376;2023-04-01T01:42:18;10.10;99.90
37984;DHT22;64625;50.882;4.376;2023-04-01T01:44:47;10.10;99.90
37984;DHT22;64625;50.882;4.376;2023-04-01T01:47:17;10.10;99.90
37984;DHT22;64625;50.882;4.376;2023-04-01T01:49:45;10.10;99.90
37984;DHT22;64625;50.882;4.376;2023-04-01T01:52:12;10.10;99.90
37984;DHT22;64625;50.882;4.376;2023-04-01T01:54:49;10.10;99.90
37984;DHT22;64625;50.882;4.376;2023-04-01T01:57:18;10.10;99.90
37984;DHT22;64625;50.882;4.376;2023-04-01T01:59:45;10.10;99.90
37984;DHT22;64625;50.882;4.376;2023-04-01T02:02:14;10.10;99.90
37984;DHT22;64625;50.882;4.376;2023-04-01T02:04:43;10.10;99.90
37984;DHT22;64625;50.882;4.376;2023-04-01T02:07:21;10.10;99.90
37984;DHT22;64625;50.882;4.376;2023-04-01T02:09:48;10.10;99.90
37984;DHT22;64625;50.882;4.376;2023-04-01T02:12:18;10.10;99.90
37984;DHT22;64625;50.882;4.376;2023-04-01T02:14:56;10.10;99.90
37984;DHT22;64625;50.882;4.376;2023-04-01T02:17:25;10.10;99.90
37984;DHT22;64625;50.882;4.376;2023-04-01T02:19:55;10.10;99.90
37984;DHT22;64625;50.882;4.376;2023-04-01T02:22:29;10.10;99.90
37984;DHT22;64625;50.882;4.376;2023-04-01T02:25:06;10.10;99.90
37984;DHT22;64625;50.882;4.376;2023-04-01T02:27:33;10.10;99.90
37984;DHT22;64625;50.882;4.376;2023-04-01T02:30:00;10.00;99.90
37984;DHT22;64625;50.882;4.376;2023-04-01T02:32:27;10.00;99.90
37984;DHT22;64625;50.882;4.376;2023-04-01T02:34:55;10.00;99.90
37984;DHT22;64625;50.882;4.376;2023-04-01T02:37:22;10.00;99.90
37984;DHT22;64625;50.882;4.376;2023-04-01T02:39:48;10.00;99.90
37984;DHT22;64625;50.882;4.376;2023-04-01T02:42:14;10.00;99.90
37984;DHT22;64625;50.882;4.376;2023-04-01T02:44:40;9.90;99.90
37984;DHT22;64625;50.882;4.376;2023-04-01T02:47:06;9.90;99.90
37984;DHT22;64625;50.882;4.376;2023-04-01T02:49:32;9.90;99.90
37984;DHT22;64625;50.882;4.376;2023-04-01T02:51:57;9.90;99.90
37984;DHT22;64625;50.882;4.376;2023-04-01T02:54:23;9.90;99.90
37984;DHT22;64625;50.882;4.376;2023-04-01T02:56:49;9.90;99.90
37984;DHT22;64625;50.882;4.376;2023-04-01T02:59:14;9.90;99.90
37984;DHT22;64625;50.882;4.376;2023-04-01T03:01:40;9.90;99.90
37984;DHT22;64625;50.882;4.376;2023-04-01T03:04:06;9.90;99.90
37984;DHT22;64625;50.882;4.376;2023-04-01T03:06:32;9.90;99.90
37984;DHT22;64625;50.882;4.376;2023-04-01T03:08:57;9.90;99.90
37984;DHT22;64625;50.882;4.376;2023-04-01T03:11:23;9.90;99.90
37984;DHT22;64625;50.882;4.376;2023-04-01T03:13:49;9.90;99.90
37984;DHT22;64625;50.882;4.376;2023-04-01T03:16:15;9.90;99.90
37984;DHT22;64625;50.882;4.376;2023-04-01T03:18:41;9.90;99.90
37984;DHT22;64625;50.882;4.376;2023-04-01T03:21:14;9.90;99.90
37984;DHT22;64625;50.882;4.376;2023-04-01T03:23:40;9.90;99.90
37984;DHT22;64625;50.882;4.376;2023-04-01T03:26:06;9.90;99.90
37984;DHT22;64625;50.882;4.376;2023-04-01T03:28:33;9.90;99.90
37984;DHT22;64625;50.882;4.376;2023-04-01T03:30:58;9.90;99.90
37984;DHT22;64625;50.882;4.376;2023-04-01T03:33:24;9.90;99.90
37984;DHT22;64625;50.882;4.376;2023-04-01T03:35:50;9.90;99.90
37984;DHT22;64625;50.882;4.376;2023-04-01T03:38:18;9.90;99.90
37984;DHT22;64625;50.882;4.376;2023-04-01T03:40:44;9.90;99.90
37984;DHT22;64625;50.882;4.376;2023-04-01T03:43:10;9.90;99.90
37984;DHT22;64625;50.882;4.376;2023-04-01T03:45:44;9.90;99.90
37984;DHT22;64625;50.882;4.376;2023-04-01T03:48:10;9.90;99.90
37984;DHT22;64625;50.882;4.376;2023-04-01T03:50:36;9.90;99.90
37984;DHT22;64625;50.882;4.376;2023-04-01T03:53:01;9.90;99.90
37984;DHT22;64625;50.882;4.376;2023-04-01T03:55:27;10.00;99.90
37984;DHT22;64625;50.882;4.376;2023-04-01T03:57:53;9.90;99.90
37984;DHT22;64625;50.882;4.376;2023-04-01T04:00:19;9.90;99.90
37984;DHT22;64625;50.882;4.376;2023-04-01T04:02:45;9.90;99.90
37984;DHT22;64625;50.882;4.376;2023-04-01T04:05:11;9.90;99.90
37984;DHT22;64625;50.882;4.376;2023-04-01T04:07:37;9.90;99.90
37984;DHT22;64625;50.882;4.376;2023-04-01T04:10:04;9.90;99.90
37984;DHT22;64625;50.882;4.376;2023-04-01T04:12:29;9.90;99.90
37984;DHT22;64625;50.882;4.376;2023-04-01T04:14:56;9.90;99.90
37984;DHT22;64625;50.882;4.376;2023-04-01T04:17:22;9.90;99.90
37984;DHT22;64625;50.882;4.376;2023-04-01T04:19:48;10.00;99.90
37984;DHT22;64625;50.882;4.376;2023-04-01T04:22:13;9.90;99.90
37984;DHT22;64625;50.882;4.376;2023-04-01T04:24:39;9.90;99.90
37984;DHT22;64625;50.882;4.376;2023-04-01T04:27:05;9.90;99.90
37984;DHT22;64625;50.882;4.376;2023-04-01T04:29:31;9.90;99.90
37984;DHT22;64625;50.882;4.376;2023-04-01T04:31:56;10.00;99.90
37984;DHT22;64625;50.882;4.376;2023-04-01T04:34:22;10.00;99.90
37984;DHT22;64625;50.882;4.376;2023-04-01T04:36:48;10.00;99.90
37984;DHT22;64625;50.882;4.376;2023-04-01T04:39:15;10.00;99.90
37984;DHT22;64625;50.882;4.376;2023-04-01T04:41:41;9.90;99.90
37984;DHT22;64625;50.882;4.376;2023-04-01T04:44:07;10.00;99.90
37984;DHT22;64625;50.882;4.376;2023-04-01T04:46:33;10.00;99.90
37984;DHT22;64625;50.882;4.376;2023-04-01T04:48:59;10.00;99.90
37984;DHT22;64625;50.882;4.376;2023-04-01T04:51:25;10.00;99.90
37984;DHT22;64625;50.882;4.376;2023-04-01T04:53:51;10.00;99.90
37984;DHT22;64625;50.882;4.376;2023-04-01T04:56:18;10.00;99.90
37984;DHT22;64625;50.882;4.376;2023-04-01T04:58:45;10.00;99.90
37984;DHT22;64625;50.882;4.376;2023-04-01T05:01:13;10.00;99.90
37984;DHT22;64625;50.882;4.376;2023-04-01T05:03:39;10.00;99.90
37984;DHT22;64625;50.882;4.376;2023-04-01T05:06:09;10.00;99.90
37984;DHT22;64625;50.882;4.376;2023-04-01T05:08:36;10.00;99.90
37984;DHT22;64625;50.882;4.376;2023-04-01T05:11:07;10.00;99.90
37984;DHT22;64625;50.882;4.376;2023-04-01T05:13:36;10.00;99.90
37984;DHT22;64625;50.882;4.376;2023-04-01T05:16:02;10.00;99.90
37984;DHT22;64625;50.882;4.376;2023-04-01T05:18:28;9.90;99.90
37984;DHT22;64625;50.882;4.376;2023-04-01T05:20:55;9.90;99.90
37984;DHT22;64625;50.882;4.376;2023-04-01T05:23:21;9.90;99.90
37984;DHT22;64625;50.882;4.376;2023-04-01T05:25:50;9.90;99.90
37984;DHT22;64625;50.882;4.376;2023-04-01T05:28:19;9.90;99.90
37984;DHT22;64625;50.882;4.376;2023-04-01T05:30:45;10.00;99.90
37984;DHT22;64625;50.882;4.376;2023-04-01T05:33:12;10.00;99.90
37984;DHT22;64625;50.882;4.376;2023-04-01T05:35:39;9.90;99.90
37984;DHT22;64625;50.882;4.376;2023-04-01T05:38:06;9.90;99.90
37984;DHT22;64625;50.882;4.376;2023-04-01T05:40:32;9.90;99.90
37984;DHT22;64625;50.882;4.376;2023-04-01T05:42:59;10.00;99.90
37984;DHT22;64625;50.882;4.376;2023-04-01T05:45:24;9.90;99.90
37984;DHT22;64625;50.882;4.376;2023-04-01T05:47:50;9.90;99.90
37984;DHT22;64625;50.882;4.376;2023-04-01T05:50:16;9.90;99.90
37984;DHT22;64625;50.882;4.376;2023-04-01T05:52:42;9.90;99.90
37984;DHT22;64625;50.882;4.376;2023-04-01T05:55:08;9.90;99.90
37984;DHT22;64625;50.882;4.376;2023-04-01T05:57:34;9.90;99.90
37984;DHT22;64625;50.882;4.376;2023-04-01T06:00:00;9.90;99.90
37984;DHT22;64625;50.882;4.376;2023-04-01T06:02:26;9.90;99.90
37984;DHT22;64625;50.882;4.376;2023-04-01T06:07:42;9.90;99.90
37984;DHT22;64625;50.882;4.376;2023-04-01T06:10:17;9.90;99.90
37984;DHT22;64625;50.882;4.376;2023-04-01T06:12:57;9.90;99.90
37984;DHT22;64625;50.882;4.376;2023-04-01T06:29:41;9.90;99.90
37984;DHT22;64625;50.882;4.376;2023-04-01T06:32:25;9.90;99.90
37984;DHT22;64625;50.882;4.376;2023-04-01T06:38:28;9.90;99.90
37984;DHT22;64625;50.882;4.376;2023-04-01T06:44:11;9.90;99.90
37984;DHT22;64625;50.882;4.376;2023-04-01T06:49:47;9.90;99.90
37984;DHT22;64625;50.882;4.376;2023-04-01T06:55:41;9.90;99.90
37984;DHT22;64625;50.882;4.376;2023-04-01T06:58:24;9.90;99.90
37984;DHT22;64625;50.882;4.376;2023-04-01T07:00:56;9.90;99.90
37984;DHT22;64625;50.882;4.376;2023-04-01T07:03:56;9.90;99.90
37984;DHT22;64625;50.882;4.376;2023-04-01T07:09:02;9.90;99.90
37984;DHT22;64625;50.882;4.376;2023-04-01T07:11:33;9.90;99.90
37984;DHT22;64625;50.882;4.376;2023-04-01T07:17:15;10.00;99.90
37984;DHT22;64625;50.882;4.376;2023-04-01T07:19:52;10.00;99.90
37984;DHT22;64625;50.882;4.376;2023-04-01T07:22:34;10.00;99.90
37984;DHT22;64625;50.882;4.376;2023-04-01T07:25:35;10.00;99.90
37984;DHT22;64625;50.882;4.376;2023-04-01T07:28:06;10.00;99.90
37984;DHT22;64625;50.882;4.376;2023-04-01T07:33:35;10.00;99.90
37984;DHT22;64625;50.882;4.376;2023-04-01T07:36:33;10.00;99.90
37984;DHT22;64625;50.882;4.376;2023-04-01T07:41:58;10.10;99.90
37984;DHT22;64625;50.882;4.376;2023-04-01T07:44:54;10.10;99.90
37984;DHT22;64625;50.882;4.376;2023-04-01T07:47:43;10.10;99.90
37984;DHT22;64625;50.882;4.376;2023-04-01T07:50:29;10.10;99.90
37984;DHT22;64625;50.882;4.376;2023-04-01T07:53:06;10.10;99.90
37984;DHT22;64625;50.882;4.376;2023-04-01T07:55:42;10.10;99.90
37984;DHT22;64625;50.882;4.376;2023-04-01T07:59:03;10.10;99.90
37984;DHT22;64625;50.882;4.376;2023-04-01T08:06:16;10.20;99.90
37984;DHT22;64625;50.882;4.376;2023-04-01T08:09:09;10.20;99.90
37984;DHT22;64625;50.882;4.376;2023-04-01T08:14:56;10.20;99.90
37984;DHT22;64625;50.882;4.376;2023-04-01T08:23:31;10.30;99.90
37984;DHT22;64625;50.882;4.376;2023-04-01T08:26:18;10.30;99.90
37984;DHT22;64625;50.882;4.376;2023-04-01T08:29:09;10.30;99.90
37984;DHT22;64625;50.882;4.376;2023-04-01T08:34:16;10.30;99.90
37984;DHT22;64625;50.882;4.376;2023-04-01T08:36:48;10.30;99.90
37984;DHT22;64625;50.882;4.376;2023-04-01T08:39:24;10.40;99.90
37984;DHT22;64625;50.882;4.376;2023-04-01T08:42:26;10.40;99.90
37984;DHT22;64625;50.882;4.376;2023-04-01T08:47:53;10.40;99.90
37984;DHT22;64625;50.882;4.376;2023-04-01T18:22:44;10.50;99.90
37984;DHT22;64625;50.882;4.376;2023-04-01T18:25:28;10.50;99.90
37984;DHT22;64625;50.882;4.376;2023-04-01T18:36:56;10.40;99.90
37984;DHT22;64625;50.882;4.376;2023-04-01T18:44:50;10.40;99.90
37984;DHT22;64625;50.882;4.376;2023-04-01T18:47:54;10.40;99.90
37984;DHT22;64625;50.882;4.376;2023-04-01T18:50:37;10.40;99.90
37984;DHT22;64625;50.882;4.376;2023-04-01T18:53:15;10.40;99.90
37984;DHT22;64625;50.882;4.376;2023-04-01T19:02:36;10.30;99.90
37984;DHT22;64625;50.882;4.376;2023-04-01T19:04:37;10.30;99.90
37984;DHT22;64625;50.882;4.376;2023-04-01T19:27:01;10.10;99.90
37984;DHT22;64625;50.882;4.376;2023-04-01T19:32:42;10.10;99.90
37984;DHT22;64625;50.882;4.376;2023-04-01T19:38:22;10.10;99.90
37984;DHT22;64625;50.882;4.376;2023-04-01T19:41:04;10.10;99.90
37984;DHT22;64625;50.882;4.376;2023-04-01T19:44:21;10.00;99.90
37984;DHT22;64625;50.882;4.376;2023-04-01T19:46:58;10.10;99.90
37984;DHT22;64625;50.882;4.376;2023-04-01T19:49:53;10.10;99.90
37984;DHT22;64625;50.882;4.376;2023-04-01T19:52:40;10.10;99.90
37984;DHT22;64625;50.882;4.376;2023-04-01T19:55:34;10.00;99.90
37984;DHT22;64625;50.882;4.376;2023-04-01T19:58:09;10.00;99.90
37984;DHT22;64625;50.882;4.376;2023-04-01T20:00:52;10.00;99.90
37984;DHT22;64625;50.882;4.376;2023-04-01T20:06:15;10.00;99.90
37984;DHT22;64625;50.882;4.376;2023-04-01T20:13:54;9.90;99.90
37984;DHT22;64625;50.882;4.376;2023-04-01T20:16:51;9.90;99.90
37984;DHT22;64625;50.882;4.376;2023-04-01T20:19:35;10.00;99.90
37984;DHT22;64625;50.882;4.376;2023-04-01T20:22:02;9.90;99.90
37984;DHT22;64625;50.882;4.376;2023-04-01T20:24:34;9.90;99.90
37984;DHT22;64625;50.882;4.376;2023-04-01T20:27:20;9.90;99.90
37984;DHT22;64625;50.882;4.376;2023-04-01T20:30:19;9.90;99.90
37984;DHT22;64625;50.882;4.376;2023-04-01T20:35:34;9.90;99.90
37984;DHT22;64625;50.882;4.376;2023-04-01T20:46:27;9.90;99.90
37984;DHT22;64625;50.882;4.376;2023-04-01T20:49:20;9.90;99.90
37984;DHT22;64625;50.882;4.376;2023-04-01T20:52:24;9.80;99.90
37984;DHT22;64625;50.882;4.376;2023-04-01T20:57:51;9.80;99.90
37984;DHT22;64625;50.882;4.376;2023-04-01T21:03:18;9.80;99.90
37984;DHT22;64625;50.882;4.376;2023-04-01T21:06:02;9.90;99.90
37984;DHT22;64625;50.882;4.376;2023-04-01T21:11:29;9.90;99.90
37984;DHT22;64625;50.882;4.376;2023-04-01T21:16:58;9.90;99.90
37984;DHT22;64625;50.882;4.376;2023-04-01T21:19:55;9.90;99.90
37984;DHT22;64625;50.882;4.376;2023-04-01T21:25:46;9.90;99.90
37984;DHT22;64625;50.882;4.376;2023-04-01T21:39:01;10.00;99.90
37984;DHT22;64625;50.882;4.376;2023-04-01T21:41:49;10.00;99.90
37984;DHT22;64625;50.882;4.376;2023-04-01T21:47:40;10.00;99.90
37984;DHT22;64625;50.882;4.376;2023-04-01T22:06:50;10.10;99.90
37984;DHT22;64625;50.882;4.376;2023-04-01T22:09:32;10.10;99.90
37984;DHT22;64625;50.882;4.376;2023-04-01T22:12:09;10.10;99.90
37984;DHT22;64625;50.882;4.376;2023-04-01T22:25:36;10.10;99.90
37984;DHT22;64625;50.882;4.376;2023-04-01T22:28:31;10.10;99.90
37984;DHT22;64625;50.882;4.376;2023-04-01T22:31:02;10.10;99.90
37984;DHT22;64625;50.882;4.376;2023-04-01T22:39:52;10.10;99.90
37984;DHT22;64625;50.882;4.376;2023-04-01T22:42:40;10.10;99.90
37984;DHT22;64625;50.882;4.376;2023-04-01T22:45:23;10.10;99.90
37984;DHT22;64625;50.882;4.376;2023-04-01T22:50:50;10.10;99.90
37984;DHT22;64625;50.882;4.376;2023-04-01T22:53:21;10.00;99.90
37984;DHT22;64625;50.882;4.376;2023-04-01T22:55:52;10.00;99.90
37984;DHT22;64625;50.882;4.376;2023-04-01T22:58:31;10.00;99.90
37984;DHT22;64625;50.882;4.376;2023-04-01T23:01:04;10.00;99.90
37984;DHT22;64625;50.882;4.376;2023-04-01T23:03:33;10.00;99.90
37984;DHT22;64625;50.882;4.376;2023-04-01T23:06:02;10.00;99.90
37984;DHT22;64625;50.882;4.376;2023-04-01T23:11:14;10.00;99.90
37984;DHT22;64625;50.882;4.376;2023-04-01T23:14:16;10.00;99.90
37984;DHT22;64625;50.882;4.376;2023-04-01T23:19:55;10.00;99.90
37984;DHT22;64625;50.882;4.376;2023-04-01T23:25:35;9.90;99.90
37984;DHT22;64625;50.882;4.376;2023-04-01T23:28:23;9.90;99.90
37984;DHT22;64625;50.882;4.376;2023-04-01T23:30:52;9.80;99.90
37984;DHT22;64625;50.882;4.376;2023-04-01T23:35:55;9.80;99.90
37984;DHT22;64625;50.882;4.376;2023-04-01T23:38:23;9.80;99.90
37984;DHT22;64625;50.882;4.376;2023-04-01T23:40:52;9.80;99.90
37984;DHT22;64625;50.882;4.376;2023-04-01T23:43:30;9.70;99.90
37984;DHT22;64625;50.882;4.376;2023-04-01T23:46:02;9.70;99.90
37984;DHT22;64625;50.882;4.376;2023-04-01T23:48:42;9.80;99.90
37984;DHT22;64625;50.882;4.376;2023-04-01T23:51:35;9.80;99.90
37984;DHT22;64625;50.882;4.376;2023-04-01T23:57:19;9.70;99.90
